Time;durP1;ratioP1;P1;durP2;ratioP2;P2;SDS_P1;SDS_P2;PMS_P1;PMS_P2;Temp;Humidity;BMP_temperature;BMP_pressure;BME280_temperature;BME280_humidity;BME280_pressure;Samples;Min_cycle;Max_cycle;Signal;HPM_P1;HPM_P2
2022/02/02 00:01:44;;;;;;;28.25;5.50;;;9.90;99.90;;;;;;5092588;28;19904;-78
2022/02/02 00:04:12;;;;;;;28.40;6.03;;;10.00;99.90;;;;;;5085010;28;20020;-77
2022/02/02 00:06:57;;;;;;;26.98;4.75;;;10.00;99.90;;;;;;5088802;28;20027;-77
2022/02/02 00:09:23;;;;;;;29.52;5.30;;;10.00;99.90;;;;;;5088882;28;20036;-78
2022/02/02 00:17:30;;;;;;;27.60;6.07;;;9.90;99.90;;;;;;5071947;28;20111;-77
2022/02/02 00:20:17;;;;;;;29.48;5.68;;;9.80;99.90;;;;;;5083525;28;20029;-77
2022/02/02 00:22:43;;;;;;;27.25;5.72;;;9.80;99.90;;;;;;5084149;28;20514;-77
2022/02/02 00:25:18;;;;;;;35.63;6.18;;;9.80;99.90;;;;;;5087452;28;20115;-77
2022/02/02 00:27:47;;;;;;;29.63;5.82;;;9.80;99.90;;;;;;5085273;28;20389;-77
2022/02/02 00:30:17;;;;;;;33.90;5.22;;;9.70;99.90;;;;;;5086964;28;20024;-77
2022/02/02 00:35:13;;;;;;;33.45;6.38;;;9.70;99.90;;;;;;5087362;28;20464;-78
2022/02/02 00:37:39;;;;;;;25.10;4.90;;;9.70;99.90;;;;;;5084629;28;20021;-77
2022/02/02 00:40:06;;;;;;;31.10;5.78;;;9.60;99.90;;;;;;5082358;28;20043;-78
2022/02/02 00:42:32;;;;;;;29.33;5.03;;;9.60;99.90;;;;;;5091036;28;20036;-77
2022/02/02 00:44:58;;;;;;;31.23;6.07;;;9.60;99.90;;;;;;5086849;28;20035;-78
2022/02/02 00:47:25;;;;;;;27.83;5.03;;;9.70;99.90;;;;;;5085850;28;20035;-77
2022/02/02 00:49:52;;;;;;;30.48;5.30;;;9.60;99.90;;;;;;5085847;28;20547;-78
2022/02/02 00:52:19;;;;;;;33.88;5.72;;;9.60;99.90;;;;;;5083795;28;20085;-77
2022/02/02 00:54:47;;;;;;;32.45;6.20;;;9.70;99.90;;;;;;5088907;28;20016;-78
2022/02/02 00:57:13;;;;;;;35.42;5.65;;;9.60;99.90;;;;;;5088225;28;20047;-77
2022/02/02 00:59:39;;;;;;;24.40;4.88;;;9.60;99.90;;;;;;5086732;28;20090;-76
2022/02/02 01:02:05;;;;;;;24.38;4.82;;;9.60;99.90;;;;;;5086568;28;20025;-77
2022/02/02 01:04:31;;;;;;;23.58;4.90;;;9.60;99.90;;;;;;5082530;28;20039;-77
2022/02/02 01:07:27;;;;;;;26.13;5.28;;;9.60;99.90;;;;;;5088950;28;20423;-77
2022/02/02 01:10:09;;;;;;;30.88;4.70;;;9.70;99.90;;;;;;5085215;28;20040;-77
2022/02/02 01:28:19;;;;;;;21.05;5.00;;;9.70;99.90;;;;;;5086406;28;20127;-77
2022/02/02 01:30:45;;;;;;;39.20;6.35;;;9.70;99.90;;;;;;5091955;28;20550;-77
2022/02/02 01:33:12;;;;;;;32.40;5.32;;;9.60;99.90;;;;;;5088271;28;20101;-77
2022/02/02 01:35:37;;;;;;;28.38;5.25;;;9.60;99.90;;;;;;5089342;28;20028;-76
2022/02/02 01:38:04;;;;;;;28.33;5.45;;;9.60;99.90;;;;;;5091190;28;20120;-76
2022/02/02 01:40:35;;;;;;;39.72;6.07;;;9.60;99.90;;;;;;5088216;28;20046;-76
2022/02/02 01:43:07;;;;;;;31.73;5.88;;;9.60;99.90;;;;;;5094544;28;20059;-76
2022/02/02 01:45:39;;;;;;;34.97;6.43;;;9.60;99.90;;;;;;5092146;28;20031;-77
2022/02/02 01:51:03;;;;;;;33.60;5.80;;;9.60;99.90;;;;;;5087469;28;20125;-77
2022/02/02 01:56:06;;;;;;;31.17;6.55;;;9.50;99.90;;;;;;5086868;28;20043;-78
2022/02/02 02:01:08;;;;;;;32.40;5.75;;;9.40;99.90;;;;;;5084688;28;20044;-77
2022/02/02 02:03:34;;;;;;;30.05;5.72;;;9.40;99.90;;;;;;5088542;28;20482;-76
2022/02/02 02:05:59;;;;;;;32.45;5.93;;;9.50;99.90;;;;;;5090184;28;20365;-76
2022/02/02 02:08:26;;;;;;;33.55;6.32;;;9.50;99.90;;;;;;5091057;28;20047;-77
2022/02/02 02:10:52;;;;;;;33.25;6.65;;;9.50;99.90;;;;;;5085294;28;20384;-76
2022/02/02 02:16:04;;;;;;;33.22;5.57;;;9.50;99.90;;;;;;5074477;28;20435;-77
2022/02/02 02:18:29;;;;;;;32.10;5.95;;;9.50;99.90;;;;;;5091755;28;20107;-77
2022/02/02 02:20:56;;;;;;;40.13;7.65;;;9.40;99.90;;;;;;5086197;28;20048;-78
2022/02/02 02:23:22;;;;;;;36.35;7.30;;;9.40;99.90;;;;;;5091528;28;20134;-77
2022/02/02 02:25:48;;;;;;;29.33;5.63;;;9.40;99.90;;;;;;5091580;28;20107;-77
2022/02/02 02:31:09;;;;;;;30.17;5.75;;;9.40;99.90;;;;;;5086957;28;20035;-77
2022/02/02 02:33:59;;;;;;;33.47;6.65;;;9.40;99.90;;;;;;5084368;28;20047;-77
2022/02/02 02:58:09;;;;;;;26.83;5.65;;;9.20;99.90;;;;;;5084814;28;20441;-76
2022/02/02 03:00:52;;;;;;;34.58;6.72;;;9.20;99.90;;;;;;5089899;28;20040;-77
2022/02/02 03:14:04;;;;;;;25.92;4.60;;;9.30;99.90;;;;;;5081211;28;20020;-77
2022/02/02 03:29:43;;;;;;;34.53;5.90;;;9.30;99.90;;;;;;5089640;28;20115;-77
2022/02/02 03:30:54;;;;;;;36.83;6.35;;;9.40;99.90;;;;;;5085581;28;20043;-77
2022/02/02 04:02:42;;;;;;;31.00;5.53;;;9.50;99.90;;;;;;5084887;28;20039;-77
2022/02/02 04:07:50;;;;;;;37.30;6.55;;;9.50;99.90;;;;;;5089657;28;20035;-77
2022/02/02 04:10:16;;;;;;;28.25;5.88;;;9.50;99.90;;;;;;5083673;28;20012;-76
2022/02/02 04:12:58;;;;;;;26.30;5.35;;;9.50;99.90;;;;;;5086506;28;20031;-76
2022/02/02 04:37:49;;;;;;;32.83;6.07;;;9.60;99.90;;;;;;5079223;28;20048;-75
2022/02/02 05:06:56;;;;;;;30.60;5.25;;;9.70;99.90;;;;;;5093402;28;20036;-76
2022/02/02 05:09:52;;;;;;;42.05;5.75;;;9.60;99.90;;;;;;5088123;28;20016;-76
2022/02/02 05:12:57;;;;;;;28.30;5.47;;;9.60;99.90;;;;;;5088974;28;20029;-76
2022/02/02 05:50:06;;;;;;;33.05;6.03;;;9.60;99.90;;;;;;5085647;28;20042;-77
2022/02/02 05:52:35;;;;;;;27.30;5.28;;;9.60;99.90;;;;;;5088179;28;20020;-79
2022/02/02 05:55:00;;;;;;;29.77;5.47;;;9.60;99.90;;;;;;5086182;28;20024;-80
2022/02/02 05:57:28;;;;;;;26.77;5.30;;;9.50;99.90;;;;;;5090316;28;20050;-77
2022/02/02 05:59:58;;;;;;;35.17;6.55;;;9.60;99.90;;;;;;5091856;28;20094;-77
2022/02/02 06:02:31;;;;;;;30.10;6.07;;;9.60;99.90;;;;;;5088127;28;20020;-77
2022/02/02 06:05:01;;;;;;;38.90;5.85;;;9.60;99.90;;;;;;5089714;28;20028;-77
2022/02/02 06:07:27;;;;;;;30.42;5.75;;;9.60;99.90;;;;;;5092793;28;20028;-76
2022/02/02 06:09:55;;;;;;;35.03;6.15;;;9.50;99.90;;;;;;5085872;28;20143;-78
2022/02/02 06:12:22;;;;;;;31.52;6.22;;;9.60;99.90;;;;;;5091028;28;20077;-77
2022/02/02 06:14:49;;;;;;;29.85;5.10;;;9.60;99.90;;;;;;5093659;28;20031;-77
2022/02/02 06:17:16;;;;;;;35.05;5.65;;;9.60;99.90;;;;;;5087179;28;20024;-77
2022/02/02 06:19:41;;;;;;;26.88;5.15;;;9.70;99.90;;;;;;5087316;28;20028;-77
2022/02/02 06:22:17;;;;;;;28.38;6.07;;;9.70;99.90;;;;;;5094505;28;20024;-76
2022/02/02 06:25:03;;;;;;;36.03;5.82;;;9.60;99.90;;;;;;5088454;28;20021;-76
2022/02/02 06:27:28;;;;;;;32.03;5.25;;;9.70;99.90;;;;;;5087121;28;20031;-77
2022/02/02 06:30:02;;;;;;;30.70;5.07;;;9.70;99.90;;;;;;5089806;28;20028;-76
2022/02/02 06:32:46;;;;;;;34.42;5.68;;;9.60;99.90;;;;;;5088329;28;20039;-77
2022/02/02 06:35:14;;;;;;;40.10;6.78;;;9.60;99.90;;;;;;5093909;28;20185;-76
2022/02/02 06:37:42;;;;;;;28.88;5.78;;;9.60;99.90;;;;;;5090918;28;20051;-76
2022/02/02 06:40:11;;;;;;;37.78;7.32;;;9.60;99.90;;;;;;5088774;28;20419;-76
2022/02/02 06:42:37;;;;;;;38.65;6.18;;;9.60;99.90;;;;;;5083631;28;20051;-77
2022/02/02 06:45:04;;;;;;;29.40;6.07;;;9.60;99.90;;;;;;5086889;28;20060;-77
2022/02/02 06:47:30;;;;;;;35.67;6.72;;;9.70;99.90;;;;;;5084119;28;20024;-76
2022/02/02 06:50:06;;;;;;;29.30;5.95;;;9.70;99.90;;;;;;5084290;28;20484;-73
2022/02/02 06:53:00;;;;;;;28.02;5.20;;;9.70;99.90;;;;;;5090630;28;20031;-77
2022/02/02 06:55:38;;;;;;;28.55;5.35;;;9.70;99.90;;;;;;5086161;28;20471;-77
2022/02/02 06:58:32;;;;;;;31.58;5.50;;;9.60;99.90;;;;;;5091363;28;20024;-77
2022/02/02 07:03:59;;;;;;;29.55;5.53;;;9.70;99.90;;;;;;5090324;28;20028;-77
2022/02/02 07:06:48;;;;;;;24.65;4.57;;;9.70;99.90;;;;;;5084638;28;20076;-77
2022/02/02 07:09:37;;;;;;;31.90;5.28;;;9.70;99.90;;;;;;5088942;28;20031;-77
2022/02/02 07:12:20;;;;;;;28.48;6.72;;;9.70;99.90;;;;;;5087078;28;20040;-77
2022/02/02 07:17:43;;;;;;;28.05;5.53;;;9.70;99.90;;;;;;5084771;28;20041;-77
2022/02/02 07:20:21;;;;;;;23.70;4.38;;;9.70;99.90;;;;;;5082972;28;20495;-77
2022/02/02 07:28:42;;;;;;;40.40;5.93;;;9.70;99.90;;;;;;5089175;28;20036;-78
2022/02/02 07:33:50;;;;;;;30.90;5.13;;;9.60;99.90;;;;;;5083893;28;20036;-77
2022/02/02 07:36:29;;;;;;;29.73;6.10;;;9.60;99.90;;;;;;5072114;28;20040;-77
2022/02/02 07:38:59;;;;;;;27.65;5.22;;;9.70;99.90;;;;;;5082102;28;20024;-77
2022/02/02 07:41:35;;;;;;;23.98;5.15;;;9.60;99.90;;;;;;5090641;28;21046;-78
2022/02/02 07:44:09;;;;;;;30.63;6.00;;;9.50;99.90;;;;;;5084965;28;20032;-79
2022/02/02 07:46:37;;;;;;;33.22;5.75;;;9.50;99.90;;;;;;5089500;28;20043;-78
2022/02/02 07:49:08;;;;;;;23.40;5.22;;;9.60;99.90;;;;;;5087581;28;20020;-79
2022/02/02 07:51:37;;;;;;;32.63;5.25;;;9.60;99.90;;;;;;5084164;28;20494;-77
2022/02/02 07:54:05;;;;;;;36.40;5.53;;;9.60;99.90;;;;;;5088524;28;20407;-78
2022/02/02 07:56:40;;;;;;;29.52;5.43;;;9.60;99.90;;;;;;5088363;28;20099;-78
2022/02/02 08:01:57;;;;;;;27.52;5.18;;;9.70;99.90;;;;;;5086357;28;20119;-78
2022/02/02 08:04:27;;;;;;;29.70;6.30;;;9.70;99.90;;;;;;5087636;28;20024;-77
2022/02/02 08:06:55;;;;;;;30.92;5.80;;;9.70;99.90;;;;;;5088878;28;20024;-77
2022/02/02 08:09:45;;;;;;;24.38;4.68;;;9.70;99.90;;;;;;5084954;28;20526;-77
2022/02/02 08:12:16;;;;;;;25.08;5.10;;;9.70;99.90;;;;;;5086588;28;20028;-77
2022/02/02 08:14:43;;;;;;;29.50;5.32;;;9.70;99.90;;;;;;5084500;28;20035;-78
2022/02/02 08:17:09;;;;;;;28.25;5.13;;;9.80;99.90;;;;;;5087961;28;20062;-77
2022/02/02 08:19:37;;;;;;;30.77;4.95;;;9.70;99.90;;;;;;5085905;28;20028;-77
2022/02/02 08:22:03;;;;;;;29.55;5.78;;;9.80;99.90;;;;;;5089569;28;20054;-78
2022/02/02 08:24:28;;;;;;;28.33;5.32;;;9.80;99.90;;;;;;5089591;28;20029;-77
2022/02/02 08:26:55;;;;;;;25.95;4.93;;;9.90;99.90;;;;;;5087266;28;20384;-78
2022/02/02 08:29:23;;;;;;;23.92;5.35;;;9.90;99.90;;;;;;5087757;28;20031;-77
2022/02/02 08:31:49;;;;;;;28.70;6.05;;;10.00;99.90;;;;;;5084447;28;20056;-78
2022/02/02 08:34:15;;;;;;;30.05;6.10;;;10.00;99.90;;;;;;5088717;28;20055;-77
2022/02/02 08:36:42;;;;;;;26.95;5.38;;;9.90;99.90;;;;;;5092980;28;20153;-77
2022/02/02 08:39:56;;;;;;;31.30;5.28;;;9.90;99.90;;;;;;5091276;28;20027;-78
2022/02/02 08:42:03;;;;;;;32.35;6.47;;;9.90;99.90;;;;;;5091998;28;20048;-79
2022/02/02 08:44:41;;;;;;;25.17;4.85;;;10.10;99.90;;;;;;5089204;28;20111;-78
2022/02/02 08:47:09;;;;;;;27.00;5.40;;;9.90;99.90;;;;;;5086143;28;20028;-77
2022/02/02 08:49:36;;;;;;;25.10;5.45;;;9.90;99.90;;;;;;5091536;28;20414;-78
2022/02/02 08:52:03;;;;;;;31.00;5.68;;;10.00;99.90;;;;;;5087235;28;20024;-77
2022/02/02 08:57:19;;;;;;;25.85;5.32;;;10.10;99.90;;;;;;5090220;28;20040;-78
2022/02/02 08:59:51;;;;;;;20.98;5.18;;;10.10;99.90;;;;;;5087984;28;20042;-76
2022/02/02 09:02:22;;;;;;;;;;;10.20;99.90;;;;;;5088646;28;20115;-74
2022/02/02 09:07:32;;;;;;;29.65;6.82;;;10.40;99.90;;;;;;5093423;28;20097;-77
2022/02/02 09:10:07;;;;;;;19.98;5.35;;;10.50;99.90;;;;;;5086132;28;20416;-76
2022/02/02 09:20:05;;;;;;;26.58;6.13;;;10.40;99.90;;;;;;5087263;28;20039;-77
2022/02/02 09:36:21;;;;;;;23.73;7.95;;;10.70;99.90;;;;;;5094121;28;20115;-77
2022/02/02 09:38:47;;;;;;;25.10;8.15;;;10.70;99.90;;;;;;5085457;28;20106;-78
2022/02/02 09:43:45;;;;;;;23.27;8.50;;;10.80;99.90;;;;;;5088602;28;20036;-78
2022/02/02 09:46:15;;;;;;;23.83;8.50;;;10.80;99.90;;;;;;5093825;28;20024;-77
2022/02/02 09:51:10;;;;;;;25.50;9.90;;;10.80;99.90;;;;;;5091709;28;20040;-76
2022/02/02 09:56:19;;;;;;;30.77;10.68;;;10.90;99.90;;;;;;5093422;28;20036;-79
2022/02/02 09:59:19;;;;;;;;;;;11.00;99.90;;;;;;5084213;28;20035;-76
2022/02/02 10:04:45;;;;;;;24.63;11.13;;;11.00;99.90;;;;;;5082618;28;20028;-78
2022/02/02 10:15:24;;;;;;;34.45;12.25;;;11.20;99.90;;;;;;5087603;28;20067;-78
2022/02/02 10:18:03;;;;;;;30.95;11.00;;;11.20;99.90;;;;;;5088593;28;20046;-77
2022/02/02 10:20:30;;;;;;;27.40;10.60;;;11.20;99.90;;;;;;5086343;28;20053;-78
2022/02/02 10:22:59;;;;;;;34.95;11.23;;;11.20;99.90;;;;;;5089270;28;20038;-79
2022/02/02 10:25:31;;;;;;;28.73;9.70;;;11.30;99.90;;;;;;5086284;28;20383;-79
2022/02/02 10:28:11;;;;;;;;;;;11.40;99.90;;;;;;5092761;28;20284;-76
2022/02/02 10:30:40;;;;;;;30.88;10.90;;;11.40;99.90;;;;;;5086167;28;19908;-78
2022/02/02 10:33:11;;;;;;;30.77;10.30;;;11.50;99.90;;;;;;5089670;28;20063;-79
2022/02/02 10:35:39;;;;;;;23.02;9.02;;;11.40;99.90;;;;;;5085240;28;20023;-79
2022/02/02 10:38:12;;;;;;;28.05;8.40;;;11.50;99.90;;;;;;5090239;28;20603;-79
2022/02/02 10:40:48;;;;;;;29.65;9.70;;;11.50;99.90;;;;;;5080213;28;20041;-79
2022/02/02 10:43:22;;;;;;;22.35;8.88;;;11.50;99.90;;;;;;5084782;28;20430;-80
2022/02/02 10:45:48;;;;;;;29.10;9.77;;;11.50;99.90;;;;;;5083926;28;20034;-75
2022/02/02 10:48:26;;;;;;;32.25;10.13;;;11.60;99.90;;;;;;5091545;28;20032;-80
2022/02/02 10:51:05;;;;;;;26.33;8.90;;;11.60;99.90;;;;;;5082608;28;20053;-80
2022/02/02 11:06:35;;;;;;;27.58;9.48;;;11.70;99.90;;;;;;5086940;28;20035;-79
2022/02/02 11:07:15;;;;;;;26.80;9.90;;;11.70;99.90;;;;;;5085794;28;20040;-80
2022/02/02 11:09:47;;;;;;;28.02;9.13;;;11.70;99.90;;;;;;5091732;28;20020;-80
2022/02/02 11:12:15;;;;;;;27.35;8.25;;;11.60;99.90;;;;;;5088499;28;20027;-80
2022/02/02 11:15:04;;;;;;;32.78;9.32;;;11.70;99.90;;;;;;5085734;28;20036;-80
2022/02/02 11:17:51;;;;;;;31.80;7.82;;;11.70;99.90;;;;;;5088394;28;20472;-80
2022/02/02 11:20:18;;;;;;;33.22;8.85;;;11.60;99.90;;;;;;5091330;28;20119;-80
2022/02/02 11:22:52;;;;;;;23.40;8.43;;;11.60;99.90;;;;;;5088465;28;20111;-80
2022/02/02 11:25:25;;;;;;;30.90;10.02;;;11.70;99.90;;;;;;5087976;28;20016;-80
2022/02/02 11:27:54;;;;;;;33.42;10.05;;;11.70;99.90;;;;;;5089706;28;20672;-79
2022/02/02 11:30:25;;;;;;;29.42;9.48;;;11.70;99.90;;;;;;5086397;28;20024;-80
2022/02/02 11:32:52;;;;;;;28.13;9.50;;;11.80;99.90;;;;;;5089966;28;20028;-73
2022/02/02 11:35:46;;;;;;;29.15;9.82;;;11.90;99.90;;;;;;5085702;28;20054;-79
2022/02/02 11:38:20;;;;;;;20.08;9.13;;;12.00;99.90;;;;;;5085715;28;20016;-80
2022/02/02 11:41:06;;;;;;;28.13;8.82;;;12.10;99.90;;;;;;5091552;28;20044;-80
2022/02/02 11:44:32;;;;;;;27.95;8.88;;;12.10;99.90;;;;;;5087762;28;20035;-80
2022/02/02 11:46:46;;;;;;;27.70;8.82;;;12.10;99.90;;;;;;5082024;28;20400;-80
2022/02/02 11:49:16;;;;;;;25.92;8.38;;;12.00;99.90;;;;;;5086372;28;20022;-80
2022/02/02 11:51:48;;;;;;;26.08;8.50;;;12.10;99.90;;;;;;5088793;28;20029;-80
2022/02/02 11:54:32;;;;;;;26.13;8.43;;;12.00;99.90;;;;;;5090810;28;20538;-80
2022/02/02 11:57:22;;;;;;;30.80;8.90;;;12.10;99.90;;;;;;5088650;28;20496;-80
2022/02/02 12:00:05;;;;;;;27.85;8.15;;;12.10;99.90;;;;;;5091772;28;20032;-80
2022/02/02 12:05:58;;;;;;;26.90;7.95;;;12.10;99.90;;;;;;5084707;28;20491;-81
2022/02/02 12:45:18;;;;;;;14.65;5.15;;;12.30;99.90;;;;;;5092202;28;20047;-79
2022/02/02 12:47:56;;;;;;;17.65;4.68;;;12.30;99.90;;;;;;5083993;28;20484;-80
2022/02/02 12:53:32;;;;;;;19.45;5.63;;;12.30;99.90;;;;;;5081775;28;20027;-80
2022/02/02 12:53:40;;;;;;;19.10;5.80;;;12.30;99.90;;;;;;5084429;28;20464;-80
2022/02/02 12:58:50;;;;;;;20.40;5.70;;;12.30;99.90;;;;;;5082000;28;20491;-80
2022/02/02 13:01:20;;;;;;;20.25;4.90;;;12.40;99.90;;;;;;5084639;28;20067;-80
2022/02/02 13:03:47;;;;;;;18.33;4.82;;;12.40;99.90;;;;;;5082597;28;20438;-80
2022/02/02 13:06:22;;;;;;;17.08;5.60;;;12.40;99.90;;;;;;5081243;28;20028;-78
2022/02/02 13:08:49;;;;;;;23.48;5.60;;;12.40;99.90;;;;;;5083463;28;20028;-79
2022/02/02 13:11:31;;;;;;;16.17;5.40;;;12.40;99.90;;;;;;5090065;28;20390;-79
2022/02/02 13:14:10;;;;;;;21.97;5.47;;;12.50;99.90;;;;;;5085014;28;20499;-80
2022/02/02 13:16:36;;;;;;;25.42;5.53;;;12.50;99.90;;;;;;5078712;28;20297;-80
2022/02/02 13:19:19;;;;;;;11.93;3.70;;;12.60;99.90;;;;;;5088286;28;20024;-79
2022/02/02 13:21:52;;;;;;;14.35;4.30;;;12.50;99.90;;;;;;5087307;28;20507;-77
2022/02/02 13:24:24;;;;;;;16.80;4.10;;;12.40;99.90;;;;;;5090037;28;20020;-78
2022/02/02 13:27:03;;;;;;;15.80;4.47;;;12.40;99.90;;;;;;5092837;28;20016;-78
2022/02/02 13:32:09;;;;;;;18.63;4.38;;;12.40;99.90;;;;;;5087773;28;20020;-78
2022/02/02 13:37:45;;;;;;;23.20;4.00;;;12.40;99.90;;;;;;5087458;28;20401;-80
2022/02/02 13:45:53;;;;;;;15.02;3.50;;;12.30;99.90;;;;;;5090401;28;20028;-80
2022/02/02 13:48:49;;;;;;;12.85;3.30;;;12.40;99.90;;;;;;5087376;28;20034;-77
2022/02/02 14:33:33;;;;;;;14.20;3.60;;;12.30;99.90;;;;;;5091153;28;20039;-80
2022/02/02 14:36:00;;;;;;;15.55;4.60;;;12.30;99.90;;;;;;5091512;28;20016;-79
2022/02/02 14:38:29;;;;;;;14.68;3.85;;;12.30;99.90;;;;;;5087127;28;20032;-79
2022/02/02 14:41:01;;;;;;;13.10;4.13;;;12.30;99.90;;;;;;5087520;28;20093;-78
2022/02/02 14:43:51;;;;;;;14.77;4.22;;;12.30;99.90;;;;;;5090418;28;20028;-78
2022/02/02 14:46:19;;;;;;;12.85;3.00;;;12.30;99.90;;;;;;5084804;28;20040;-78
2022/02/02 14:48:51;;;;;;;8.40;2.83;;;12.30;99.90;;;;;;5089935;28;20020;-78
2022/02/02 14:54:01;;;;;;;10.02;3.22;;;12.20;99.90;;;;;;5087277;28;20025;-79
2022/02/02 15:08:56;;;;;;;10.13;2.60;;;12.10;99.90;;;;;;5082937;28;20043;-78
2022/02/02 15:16:49;;;;;;;10.25;3.22;;;12.10;99.90;;;;;;5084392;28;20032;-78
2022/02/02 15:28:59;;;;;;;10.15;3.72;;;12.00;99.90;;;;;;5083475;28;20032;-77
2022/02/02 15:31:27;;;;;;;9.68;4.13;;;12.10;99.90;;;;;;5087011;28;20028;-77
2022/02/02 15:33:54;;;;;;;11.48;4.68;;;12.10;99.90;;;;;;5091796;28;20022;-77
2022/02/02 15:38:52;;;;;;;14.60;7.93;;;11.90;99.90;;;;;;5090655;28;20123;-78
2022/02/02 15:41:24;;;;;;;20.63;9.48;;;11.90;99.90;;;;;;5090603;28;20036;-78
2022/02/02 16:05:28;;;;;;;16.77;7.35;;;11.80;99.90;;;;;;5084894;28;20024;-76
2022/02/02 16:07:56;;;;;;;12.00;6.78;;;11.80;99.90;;;;;;5084512;28;20062;-78
2022/02/02 16:10:37;;;;;;;14.95;6.68;;;11.80;99.90;;;;;;5088041;28;20016;-77
2022/02/02 16:13:03;;;;;;;12.93;6.75;;;11.80;99.90;;;;;;5085300;28;20029;-76
2022/02/02 16:15:31;;;;;;;14.57;7.38;;;11.70;99.90;;;;;;5086420;28;20035;-77
2022/02/02 16:31:33;;;;;;;18.70;8.25;;;11.60;99.90;;;;;;5079843;28;20396;-76
2022/02/02 16:31:54;;;;;;;13.00;5.60;;;11.60;99.90;;;;;;5081865;28;20069;-78
2022/02/02 16:37:08;;;;;;;23.92;6.80;;;11.50;99.90;;;;;;5088463;28;20148;-77
2022/02/02 16:39:39;;;;;;;20.13;7.57;;;11.40;99.90;;;;;;5084331;28;20024;-77
2022/02/02 16:44:51;;;;;;;17.63;6.00;;;11.50;99.90;;;;;;5089972;28;20039;-77
2022/02/02 16:47:17;;;;;;;17.63;5.72;;;11.50;99.90;;;;;;5087077;28;20028;-78
2022/02/02 16:49:42;;;;;;;10.07;4.65;;;11.50;99.90;;;;;;5086501;28;20033;-77
2022/02/02 16:52:08;;;;;;;14.18;5.88;;;11.40;99.90;;;;;;5083825;28;20031;-76
2022/02/02 16:54:39;;;;;;;9.95;5.30;;;11.30;99.90;;;;;;5086055;28;20443;-77
2022/02/02 17:25:09;;;;;;;22.63;14.30;;;11.10;99.90;;;;;;5092422;28;20055;-80
2022/02/02 17:30:07;;;;;;;26.15;16.85;;;11.10;99.90;;;;;;5089612;28;20060;-79
2022/02/02 17:35:24;;;;;;;27.85;17.60;;;11.00;99.90;;;;;;5091075;28;20024;-78
2022/02/02 17:40:57;;;;;;;31.10;19.50;;;10.90;99.90;;;;;;5089980;28;20054;-77
2022/02/02 18:20:40;;;;;;;35.38;22.73;;;10.90;99.90;;;;;;5086604;28;20064;-76
2022/02/02 18:26:23;;;;;;;37.63;21.65;;;10.90;99.90;;;;;;5110897;28;20491;-76
2022/02/02 18:29:05;;;;;;;39.58;25.60;;;10.90;99.90;;;;;;5090967;28;20040;-79
2022/02/02 18:50:12;;;;;;;36.97;24.75;;;10.90;99.90;;;;;;5086861;28;20237;-76
2022/02/02 20:11:36;;;;;;;52.47;30.33;;;10.90;99.90;;;;;;5079758;28;20028;-76
2022/02/02 20:14:03;;;;;;;51.25;29.08;;;10.90;99.90;;;;;;5086457;28;20016;-77
2022/02/02 20:16:29;;;;;;;55.53;31.25;;;11.00;99.90;;;;;;5086929;28;20016;-76
2022/02/02 20:18:57;;;;;;;57.15;31.17;;;11.00;99.90;;;;;;5091069;28;20537;-76
2022/02/02 20:21:27;;;;;;;58.17;33.95;;;11.00;99.90;;;;;;5086797;28;20123;-76
2022/02/02 20:23:53;;;;;;;53.85;32.50;;;11.00;99.90;;;;;;5088557;28;20051;-75
2022/02/02 20:26:22;;;;;;;59.40;33.47;;;10.90;99.90;;;;;;5083386;28;20060;-77
2022/02/02 20:28:48;;;;;;;57.08;32.40;;;11.00;99.90;;;;;;5092364;28;20467;-76
2022/02/02 20:31:15;;;;;;;56.55;31.67;;;11.00;99.90;;;;;;5086936;28;20069;-77
2022/02/02 20:33:42;;;;;;;54.08;29.90;;;11.00;99.90;;;;;;5089943;28;20056;-77
2022/02/02 20:36:09;;;;;;;51.78;28.95;;;11.10;99.90;;;;;;5094141;28;20024;-78
2022/02/02 20:38:36;;;;;;;58.00;30.92;;;11.00;99.90;;;;;;5095275;28;20384;-77
2022/02/02 20:41:02;;;;;;;53.95;28.52;;;11.00;99.90;;;;;;5092386;28;20565;-76
2022/02/02 20:43:34;;;;;;;58.33;30.02;;;11.00;99.90;;;;;;5090728;28;20083;-76
2022/02/02 21:15:12;;;;;;;62.20;30.98;;;10.90;99.90;;;;;;5090916;28;20563;-77
2022/02/02 21:17:39;;;;;;;62.63;33.17;;;11.00;99.90;;;;;;5090550;28;20107;-77
2022/02/02 21:20:51;;;;;;;55.80;30.92;;;11.00;99.90;;;;;;5093259;28;20031;-78
2022/02/02 21:22:59;;;;;;;52.30;30.45;;;11.00;99.90;;;;;;5090375;28;20021;-77
2022/02/02 21:27:57;;;;;;;49.95;29.85;;;11.00;99.90;;;;;;5093493;28;20032;-78
2022/02/02 21:30:23;;;;;;;58.35;33.83;;;11.00;99.90;;;;;;5093792;28;20046;-78
2022/02/02 21:32:49;;;;;;;59.55;32.92;;;11.00;99.90;;;;;;5081811;28;20024;-78
2022/02/02 21:35:16;;;;;;;55.00;30.35;;;11.00;99.90;;;;;;5092625;28;20054;-78
2022/02/02 21:37:47;;;;;;;59.67;34.92;;;11.00;99.90;;;;;;5088828;28;20099;-78
2022/02/02 21:40:24;;;;;;;53.20;31.02;;;11.00;99.90;;;;;;5092636;28;20458;-79
2022/02/02 21:42:52;;;;;;;53.83;29.40;;;11.10;99.90;;;;;;5085594;28;20492;-77
2022/02/02 21:45:19;;;;;;;52.85;29.75;;;11.10;99.90;;;;;;5092090;28;20017;-78
2022/02/02 21:47:45;;;;;;;52.67;31.85;;;11.00;99.90;;;;;;5090741;28;20035;-79
2022/02/02 21:50:14;;;;;;;57.75;34.58;;;11.10;99.90;;;;;;5093662;28;20115;-78
2022/02/02 21:52:40;;;;;;;55.08;32.67;;;11.10;99.90;;;;;;5093324;28;20024;-78
2022/02/02 21:55:08;;;;;;;62.88;34.53;;;11.10;99.90;;;;;;5088511;28;20066;-79
2022/02/02 21:57:34;;;;;;;66.10;34.58;;;11.00;99.90;;;;;;5087847;28;20024;-77
2022/02/02 22:00:00;;;;;;;66.50;34.72;;;11.10;99.90;;;;;;5089687;28;20024;-77
2022/02/02 22:02:28;;;;;;;69.45;37.38;;;11.00;99.90;;;;;;5086711;28;20032;-77
2022/02/02 22:04:53;;;;;;;68.75;35.60;;;11.00;99.90;;;;;;5094421;28;20025;-79
2022/02/02 22:07:19;;;;;;;70.13;36.83;;;11.00;99.90;;;;;;5091026;28;20043;-77
2022/02/02 22:09:48;;;;;;;71.93;39.63;;;11.00;99.90;;;;;;5086992;28;20028;-77
2022/02/02 22:12:13;;;;;;;68.85;38.70;;;11.00;99.90;;;;;;5088270;28;20024;-78
2022/02/02 22:14:40;;;;;;;74.32;40.15;;;11.10;99.90;;;;;;5092051;28;20032;-78
2022/02/02 22:17:06;;;;;;;65.80;35.13;;;11.00;99.90;;;;;;5083788;28;20095;-79
2022/02/02 22:19:32;;;;;;;67.80;36.50;;;11.10;99.90;;;;;;5092117;28;20437;-77
2022/02/02 22:21:57;;;;;;;69.70;39.55;;;11.10;99.90;;;;;;5091989;28;20505;-77
2022/02/02 22:24:23;;;;;;;69.85;37.30;;;11.10;99.90;;;;;;5093241;28;20048;-77
2022/02/02 22:26:49;;;;;;;69.47;40.05;;;11.10;99.90;;;;;;5082602;28;20072;-77
2022/02/02 22:29:15;;;;;;;62.05;34.17;;;11.10;99.90;;;;;;5088567;28;20111;-78
2022/02/02 22:31:41;;;;;;;72.80;37.85;;;11.00;99.90;;;;;;5094576;28;20099;-77
2022/02/02 22:34:06;;;;;;;66.45;35.67;;;11.10;99.90;;;;;;5088352;28;20031;-77
2022/02/02 22:36:32;;;;;;;62.08;34.70;;;11.00;99.90;;;;;;5085683;28;20024;-77
2022/02/02 22:38:58;;;;;;;58.20;33.53;;;11.00;99.90;;;;;;5090904;28;20058;-77
2022/02/02 22:41:24;;;;;;;64.25;34.88;;;11.00;99.90;;;;;;5086616;28;20024;-78
2022/02/02 22:43:52;;;;;;;50.50;30.40;;;11.00;99.90;;;;;;5086818;28;20020;-78
2022/02/02 22:46:23;;;;;;;53.88;33.13;;;11.00;99.90;;;;;;5088827;28;20506;-77
2022/02/02 22:48:48;;;;;;;54.70;33.38;;;11.00;99.90;;;;;;5084750;28;20023;-78
2022/02/02 22:51:14;;;;;;;55.58;33.20;;;11.00;99.90;;;;;;5091567;28;20432;-77
2022/02/02 22:53:40;;;;;;;52.13;32.47;;;11.10;99.90;;;;;;5086072;28;20031;-77
2022/02/02 22:56:06;;;;;;;52.90;32.70;;;11.00;99.90;;;;;;5091392;28;20476;-77
2022/02/02 22:58:32;;;;;;;47.80;28.77;;;11.00;99.90;;;;;;5081889;28;20039;-77
2022/02/02 23:00:57;;;;;;;46.60;28.83;;;11.10;99.90;;;;;;5089375;28;20118;-77
2022/02/02 23:03:24;;;;;;;48.63;29.00;;;11.10;99.90;;;;;;5091646;28;20051;-77
2022/02/02 23:05:57;;;;;;;52.25;32.88;;;11.00;99.90;;;;;;5083480;28;20431;-77
2022/02/02 23:08:26;;;;;;;46.97;29.20;;;11.00;99.90;;;;;;5087710;28;20065;-77
2022/02/02 23:10:52;;;;;;;52.83;31.92;;;11.00;99.90;;;;;;5084200;28;20016;-76
2022/02/02 23:13:18;;;;;;;55.13;31.67;;;11.00;99.90;;;;;;5088189;28;20027;-78
2022/02/02 23:16:07;;;;;;;49.25;30.25;;;11.00;99.90;;;;;;5088203;28;20094;-78
2022/02/02 23:18:36;;;;;;;55.00;32.65;;;10.90;99.90;;;;;;5087919;28;20396;-77
2022/02/02 23:21:06;;;;;;;56.08;33.25;;;10.90;99.90;;;;;;5090459;28;20036;-77
2022/02/02 23:23:37;;;;;;;54.53;33.40;;;10.90;99.90;;;;;;5083949;28;20028;-77
2022/02/02 23:26:03;;;;;;;53.97;31.73;;;10.90;99.90;;;;;;5087336;28;20112;-78
2022/02/02 23:28:34;;;;;;;56.30;33.33;;;10.90;99.90;;;;;;5091032;28;20020;-78
2022/02/02 23:31:03;;;;;;;56.95;33.42;;;10.90;99.90;;;;;;5090514;28;20062;-76
2022/02/02 23:33:30;;;;;;;55.42;33.33;;;11.00;99.90;;;;;;5079619;28;20073;-78
2022/02/02 23:35:58;;;;;;;58.85;33.67;;;11.00;99.90;;;;;;5085359;28;20435;-76
2022/02/02 23:38:24;;;;;;;54.20;33.17;;;10.90;99.90;;;;;;5089298;28;20024;-78
2022/02/02 23:43:19;;;;;;;64.57;37.28;;;10.90;99.90;;;;;;5086720;28;20720;-78
2022/02/02 23:46:04;;;;;;;63.80;35.60;;;10.90;99.90;;;;;;5085303;28;20110;-78